Terminal Aerodrome Forecast
Issued by NWS Hastings, NE

Home | Current Version | Previous Version | Text Only | Print | Product List | Glossary On
Versions: 1 2 3 4 5 6 7 8 9 10 11 12
000
FTUS43 KGID 240547
TAFGRI
TAF
KGRI 240547Z 2406/2506 34007KT P6SM SCT030
     FM241500 03012G17KT P6SM BKN150
     FM242200 04010KT P6SM BKN120
     FM250200 01005KT P6SM BKN100=

USA.gov is the U.S. government's official web portal to all federal, state and local government web resources and services.